Impacts TAF Board INFO
FOR SITUATIONAL AWARENESS. NOT TO BE USED FOR FLIGHT PLANNING PURPOSES.
IDs:

KDCA - Washington/National, VA, US

Issued at 1720 UTC 22 Apr 2018
Updated at 2021 UTC 22 Apr 2018
Potential Impact None Slight Moderate High
Time<<23/09Z 23/10Z 23/11Z 23/12Z 23/13Z 23/14Z 23/15Z 23/16Z 23/17Z 23/18Z 23/19Z 23/20Z 23/21Z>>
Type PRVL PRVL PRVL PRVL PRVL PRVL PRVL PRVL PRVL PRVL PRVL PRVL PRVL
VIS >6 >6 >6 >6 >6 >6 >6 >6 >6 >6 >6 >6 >6
CIG -- -- -- -- -- -- -- -- -- -- -- -- --
Cover SCT SCT SCT SCT SCT SCT FEW FEW FEW FEW FEW SCT SCT
FltCat VFR VFR VFR VFR VFR VFR VFR VFR VFR VFR VFR VFR VFR
WX -- -- -- -- -- -- -- -- -- -- -- -- --
WDir VRB VRB VRB VRB VRB VRB 120 120 120 120 120 140 140
WSpd 3 3 3 3 3 3 7 7 7 7 7 11 11
WGst -- -- -- -- -- -- -- -- -- -- -- 19 19

Raw TAF
KDCA 221720Z 2218/2324 13006KT P6SM SCT070 BKN110
  FM222300 13007KT P6SM FEW060 SCT110
  FM230700 VRB03KT P6SM FEW070 SCT080
  FM231500 12007KT P6SM FEW040 FEW250
  FM232000 14011G19KT P6SM FEW070 SCT250


METAR Board
Radar Display
Forecast Discussion

FOR SITUATIONAL AWARENESS. NOT TO BE USED FOR FLIGHT PLANNING PURPOSES.